sensor_id;sensor_type;location;lat;lon;timestamp;P1;durP1;ratioP1;P2;durP2;ratioP2
4885;SDS011;2457;51.788;6.136;2023-04-15T00:02:12;5.77;;;2.90;;
4885;SDS011;2457;51.788;6.136;2023-04-15T00:04:40;7.50;;;3.60;;
4885;SDS011;2457;51.788;6.136;2023-04-15T00:07:07;8.27;;;3.23;;
4885;SDS011;2457;51.788;6.136;2023-04-15T00:09:35;11.63;;;3.17;;
4885;SDS011;2457;51.788;6.136;2023-04-15T00:12:02;10.23;;;3.40;;
4885;SDS011;2457;51.788;6.136;2023-04-15T00:14:30;6.87;;;3.17;;
4885;SDS011;2457;51.788;6.136;2023-04-15T00:16:57;6.13;;;3.00;;
4885;SDS011;2457;51.788;6.136;2023-04-15T00:19:24;6.50;;;3.27;;
4885;SDS011;2457;51.788;6.136;2023-04-15T00:21:51;7.23;;;3.63;;
4885;SDS011;2457;51.788;6.136;2023-04-15T00:24:19;7.13;;;2.80;;
4885;SDS011;2457;51.788;6.136;2023-04-15T00:26:46;5.40;;;2.67;;
4885;SDS011;2457;51.788;6.136;2023-04-15T00:29:14;6.30;;;3.10;;
4885;SDS011;2457;51.788;6.136;2023-04-15T00:31:41;7.40;;;3.13;;
4885;SDS011;2457;51.788;6.136;2023-04-15T00:34:08;12.43;;;3.10;;
4885;SDS011;2457;51.788;6.136;2023-04-15T00:36:36;7.33;;;3.10;;
4885;SDS011;2457;51.788;6.136;2023-04-15T00:39:03;6.73;;;3.67;;
4885;SDS011;2457;51.788;6.136;2023-04-15T00:41:30;5.17;;;2.90;;
4885;SDS011;2457;51.788;6.136;2023-04-15T00:44:00;5.77;;;2.50;;
4885;SDS011;2457;51.788;6.136;2023-04-15T00:46:27;9.20;;;3.47;;
4885;SDS011;2457;51.788;6.136;2023-04-15T00:48:55;9.20;;;3.37;;
4885;SDS011;2457;51.788;6.136;2023-04-15T00:51:22;7.30;;;3.43;;
4885;SDS011;2457;51.788;6.136;2023-04-15T00:53:50;8.93;;;3.10;;
4885;SDS011;2457;51.788;6.136;2023-04-15T00:56:19;5.90;;;2.77;;
4885;SDS011;2457;51.788;6.136;2023-04-15T00:58:47;7.70;;;3.30;;
4885;SDS011;2457;51.788;6.136;2023-04-15T01:01:14;6.30;;;3.13;;
4885;SDS011;2457;51.788;6.136;2023-04-15T01:03:41;6.10;;;3.57;;
4885;SDS011;2457;51.788;6.136;2023-04-15T01:06:08;9.53;;;3.20;;
4885;SDS011;2457;51.788;6.136;2023-04-15T01:08:36;5.73;;;3.53;;
4885;SDS011;2457;51.788;6.136;2023-04-15T01:11:03;10.10;;;3.33;;
4885;SDS011;2457;51.788;6.136;2023-04-15T01:13:31;6.80;;;3.07;;
4885;SDS011;2457;51.788;6.136;2023-04-15T01:15:59;6.47;;;3.40;;
4885;SDS011;2457;51.788;6.136;2023-04-15T01:18:28;6.50;;;2.87;;
4885;SDS011;2457;51.788;6.136;2023-04-15T01:20:55;9.70;;;3.10;;
4885;SDS011;2457;51.788;6.136;2023-04-15T01:23:23;8.27;;;3.60;;
4885;SDS011;2457;51.788;6.136;2023-04-15T01:25:50;8.47;;;3.60;;
4885;SDS011;2457;51.788;6.136;2023-04-15T01:28:18;7.03;;;3.60;;
4885;SDS011;2457;51.788;6.136;2023-04-15T01:30:46;6.40;;;3.07;;
4885;SDS011;2457;51.788;6.136;2023-04-15T01:33:14;8.90;;;3.07;;
4885;SDS011;2457;51.788;6.136;2023-04-15T01:35:41;8.23;;;3.50;;
4885;SDS011;2457;51.788;6.136;2023-04-15T01:38:11;9.80;;;3.47;;
4885;SDS011;2457;51.788;6.136;2023-04-15T01:40:38;8.13;;;3.47;;
4885;SDS011;2457;51.788;6.136;2023-04-15T01:43:06;8.10;;;3.90;;
4885;SDS011;2457;51.788;6.136;2023-04-15T01:45:33;5.83;;;3.50;;
4885;SDS011;2457;51.788;6.136;2023-04-15T01:48:00;8.13;;;3.40;;
4885;SDS011;2457;51.788;6.136;2023-04-15T01:50:27;7.87;;;3.47;;
4885;SDS011;2457;51.788;6.136;2023-04-15T01:52:55;7.83;;;3.33;;
4885;SDS011;2457;51.788;6.136;2023-04-15T01:55:22;17.30;;;3.80;;
4885;SDS011;2457;51.788;6.136;2023-04-15T01:57:49;7.43;;;3.07;;
4885;SDS011;2457;51.788;6.136;2023-04-15T02:00:17;7.70;;;3.80;;
4885;SDS011;2457;51.788;6.136;2023-04-15T02:02:44;10.30;;;3.70;;
4885;SDS011;2457;51.788;6.136;2023-04-15T02:05:12;5.63;;;3.43;;
4885;SDS011;2457;51.788;6.136;2023-04-15T02:07:39;6.60;;;3.60;;
4885;SDS011;2457;51.788;6.136;2023-04-15T02:10:07;7.43;;;3.57;;
4885;SDS011;2457;51.788;6.136;2023-04-15T02:12:34;8.37;;;3.80;;
4885;SDS011;2457;51.788;6.136;2023-04-15T02:15:02;7.43;;;3.60;;
4885;SDS011;2457;51.788;6.136;2023-04-15T02:17:29;10.33;;;3.50;;
4885;SDS011;2457;51.788;6.136;2023-04-15T02:19:57;6.53;;;3.20;;
4885;SDS011;2457;51.788;6.136;2023-04-15T02:22:25;7.37;;;3.80;;
4885;SDS011;2457;51.788;6.136;2023-04-15T02:24:52;6.73;;;3.17;;
4885;SDS011;2457;51.788;6.136;2023-04-15T02:27:19;7.90;;;3.47;;
4885;SDS011;2457;51.788;6.136;2023-04-15T02:29:47;11.80;;;3.80;;
4885;SDS011;2457;51.788;6.136;2023-04-15T02:32:16;6.43;;;3.67;;
4885;SDS011;2457;51.788;6.136;2023-04-15T02:34:44;6.47;;;3.63;;
4885;SDS011;2457;51.788;6.136;2023-04-15T02:37:11;6.30;;;3.50;;
4885;SDS011;2457;51.788;6.136;2023-04-15T02:39:39;8.40;;;4.00;;
4885;SDS011;2457;51.788;6.136;2023-04-15T02:42:06;6.90;;;3.20;;
4885;SDS011;2457;51.788;6.136;2023-04-15T02:44:33;8.67;;;3.90;;
4885;SDS011;2457;51.788;6.136;2023-04-15T02:47:01;10.10;;;3.80;;
4885;SDS011;2457;51.788;6.136;2023-04-15T02:49:30;9.40;;;3.87;;
4885;SDS011;2457;51.788;6.136;2023-04-15T02:51:57;10.37;;;3.57;;
4885;SDS011;2457;51.788;6.136;2023-04-15T02:54:25;8.27;;;3.50;;
4885;SDS011;2457;51.788;6.136;2023-04-15T02:56:54;12.73;;;4.57;;
4885;SDS011;2457;51.788;6.136;2023-04-15T02:59:21;10.37;;;3.63;;
4885;SDS011;2457;51.788;6.136;2023-04-15T03:01:49;6.77;;;3.60;;
4885;SDS011;2457;51.788;6.136;2023-04-15T03:04:16;8.47;;;3.80;;
4885;SDS011;2457;51.788;6.136;2023-04-15T03:06:43;5.30;;;3.33;;
4885;SDS011;2457;51.788;6.136;2023-04-15T03:09:11;8.30;;;3.80;;
4885;SDS011;2457;51.788;6.136;2023-04-15T03:11:38;7.90;;;4.67;;
4885;SDS011;2457;51.788;6.136;2023-04-15T03:14:07;8.20;;;3.83;;
4885;SDS011;2457;51.788;6.136;2023-04-15T03:16:34;7.50;;;3.47;;
4885;SDS011;2457;51.788;6.136;2023-04-15T03:19:01;11.47;;;3.50;;
4885;SDS011;2457;51.788;6.136;2023-04-15T03:21:28;7.63;;;3.87;;
4885;SDS011;2457;51.788;6.136;2023-04-15T03:23:56;8.73;;;3.77;;
4885;SDS011;2457;51.788;6.136;2023-04-15T03:26:25;8.20;;;3.70;;
4885;SDS011;2457;51.788;6.136;2023-04-15T03:28:52;6.07;;;3.50;;
4885;SDS011;2457;51.788;6.136;2023-04-15T03:31:20;8.83;;;3.87;;
4885;SDS011;2457;51.788;6.136;2023-04-15T03:33:47;10.23;;;3.83;;
4885;SDS011;2457;51.788;6.136;2023-04-15T03:36:14;9.20;;;4.07;;
4885;SDS011;2457;51.788;6.136;2023-04-15T03:38:42;5.77;;;3.27;;
4885;SDS011;2457;51.788;6.136;2023-04-15T03:41:09;7.17;;;3.80;;
4885;SDS011;2457;51.788;6.136;2023-04-15T03:43:36;7.40;;;3.93;;
4885;SDS011;2457;51.788;6.136;2023-04-15T03:46:03;7.77;;;3.47;;
4885;SDS011;2457;51.788;6.136;2023-04-15T03:48:31;7.87;;;3.57;;
4885;SDS011;2457;51.788;6.136;2023-04-15T03:50:58;7.93;;;4.20;;
4885;SDS011;2457;51.788;6.136;2023-04-15T03:53:26;7.23;;;4.27;;
4885;SDS011;2457;51.788;6.136;2023-04-15T03:55:53;8.73;;;4.10;;
4885;SDS011;2457;51.788;6.136;2023-04-15T03:58:20;7.70;;;3.73;;
4885;SDS011;2457;51.788;6.136;2023-04-15T04:00:47;7.50;;;4.10;;
4885;SDS011;2457;51.788;6.136;2023-04-15T04:03:15;11.10;;;3.70;;
4885;SDS011;2457;51.788;6.136;2023-04-15T04:05:42;7.20;;;3.30;;
4885;SDS011;2457;51.788;6.136;2023-04-15T04:08:09;8.23;;;3.77;;
4885;SDS011;2457;51.788;6.136;2023-04-15T04:10:38;7.00;;;3.93;;
4885;SDS011;2457;51.788;6.136;2023-04-15T04:13:06;5.63;;;3.40;;
4885;SDS011;2457;51.788;6.136;2023-04-15T04:15:33;8.13;;;3.83;;
4885;SDS011;2457;51.788;6.136;2023-04-15T04:18:00;8.97;;;4.07;;
4885;SDS011;2457;51.788;6.136;2023-04-15T04:20:28;6.83;;;3.80;;
4885;SDS011;2457;51.788;6.136;2023-04-15T04:22:57;6.43;;;3.97;;
4885;SDS011;2457;51.788;6.136;2023-04-15T04:25:24;7.50;;;4.10;;
4885;SDS011;2457;51.788;6.136;2023-04-15T04:27:52;7.70;;;4.30;;
4885;SDS011;2457;51.788;6.136;2023-04-15T04:30:19;7.90;;;3.83;;
4885;SDS011;2457;51.788;6.136;2023-04-15T04:32:48;10.63;;;3.90;;
4885;SDS011;2457;51.788;6.136;2023-04-15T04:35:16;9.13;;;4.43;;
4885;SDS011;2457;51.788;6.136;2023-04-15T04:37:43;6.60;;;3.70;;
4885;SDS011;2457;51.788;6.136;2023-04-15T04:40:10;8.30;;;4.13;;
4885;SDS011;2457;51.788;6.136;2023-04-15T04:42:38;9.03;;;4.90;;
4885;SDS011;2457;51.788;6.136;2023-04-15T04:45:06;6.40;;;3.73;;
4885;SDS011;2457;51.788;6.136;2023-04-15T04:47:33;6.57;;;3.60;;
4885;SDS011;2457;51.788;6.136;2023-04-15T04:50:01;7.20;;;4.10;;
4885;SDS011;2457;51.788;6.136;2023-04-15T04:52:29;8.73;;;4.30;;
4885;SDS011;2457;51.788;6.136;2023-04-15T04:54:56;8.10;;;4.20;;
4885;SDS011;2457;51.788;6.136;2023-04-15T04:57:23;7.20;;;4.07;;
4885;SDS011;2457;51.788;6.136;2023-04-15T04:59:50;7.50;;;4.37;;
4885;SDS011;2457;51.788;6.136;2023-04-15T05:02:18;6.63;;;4.23;;
4885;SDS011;2457;51.788;6.136;2023-04-15T05:04:45;7.63;;;4.50;;
4885;SDS011;2457;51.788;6.136;2023-04-15T05:07:12;6.77;;;3.83;;
4885;SDS011;2457;51.788;6.136;2023-04-15T05:09:39;7.87;;;4.47;;
4885;SDS011;2457;51.788;6.136;2023-04-15T05:12:07;8.90;;;5.20;;
4885;SDS011;2457;51.788;6.136;2023-04-15T05:14:36;7.50;;;4.60;;
4885;SDS011;2457;51.788;6.136;2023-04-15T05:17:04;7.50;;;4.40;;
4885;SDS011;2457;51.788;6.136;2023-04-15T05:19:32;8.90;;;4.60;;
4885;SDS011;2457;51.788;6.136;2023-04-15T05:21:59;12.37;;;5.10;;
4885;SDS011;2457;51.788;6.136;2023-04-15T05:24:26;9.40;;;4.57;;
4885;SDS011;2457;51.788;6.136;2023-04-15T05:26:54;9.80;;;4.47;;
4885;SDS011;2457;51.788;6.136;2023-04-15T05:29:22;9.73;;;4.70;;
4885;SDS011;2457;51.788;6.136;2023-04-15T05:31:49;9.53;;;4.57;;
4885;SDS011;2457;51.788;6.136;2023-04-15T05:34:17;9.23;;;4.90;;
4885;SDS011;2457;51.788;6.136;2023-04-15T05:36:44;8.57;;;5.13;;
4885;SDS011;2457;51.788;6.136;2023-04-15T05:39:11;7.80;;;4.57;;
4885;SDS011;2457;51.788;6.136;2023-04-15T05:41:38;15.47;;;7.37;;
4885;SDS011;2457;51.788;6.136;2023-04-15T05:44:06;10.73;;;5.23;;
4885;SDS011;2457;51.788;6.136;2023-04-15T05:46:33;11.27;;;4.93;;
4885;SDS011;2457;51.788;6.136;2023-04-15T05:49:00;9.70;;;4.80;;
4885;SDS011;2457;51.788;6.136;2023-04-15T05:51:27;11.03;;;4.70;;
4885;SDS011;2457;51.788;6.136;2023-04-15T05:53:55;9.10;;;4.30;;
4885;SDS011;2457;51.788;6.136;2023-04-15T05:56:22;11.03;;;5.07;;
4885;SDS011;2457;51.788;6.136;2023-04-15T05:58:51;7.63;;;4.87;;
4885;SDS011;2457;51.788;6.136;2023-04-15T06:01:18;8.20;;;4.60;;
4885;SDS011;2457;51.788;6.136;2023-04-15T06:03:46;7.87;;;4.20;;
4885;SDS011;2457;51.788;6.136;2023-04-15T06:06:14;8.57;;;4.80;;
4885;SDS011;2457;51.788;6.136;2023-04-15T06:08:41;12.60;;;5.10;;
4885;SDS011;2457;51.788;6.136;2023-04-15T06:11:08;10.27;;;4.63;;
4885;SDS011;2457;51.788;6.136;2023-04-15T06:13:36;8.27;;;4.70;;
4885;SDS011;2457;51.788;6.136;2023-04-15T06:16:03;10.33;;;5.00;;
4885;SDS011;2457;51.788;6.136;2023-04-15T06:18:30;7.73;;;5.00;;
4885;SDS011;2457;51.788;6.136;2023-04-15T06:20:58;10.53;;;4.93;;
4885;SDS011;2457;51.788;6.136;2023-04-15T06:23:25;8.57;;;4.60;;
4885;SDS011;2457;51.788;6.136;2023-04-15T06:25:52;9.00;;;5.17;;
4885;SDS011;2457;51.788;6.136;2023-04-15T06:28:20;12.00;;;5.00;;
4885;SDS011;2457;51.788;6.136;2023-04-15T06:30:47;9.90;;;5.30;;
4885;SDS011;2457;51.788;6.136;2023-04-15T06:33:14;7.50;;;4.80;;
4885;SDS011;2457;51.788;6.136;2023-04-15T06:35:42;10.30;;;5.30;;
4885;SDS011;2457;51.788;6.136;2023-04-15T06:38:09;12.80;;;5.70;;
4885;SDS011;2457;51.788;6.136;2023-04-15T06:40:36;8.40;;;4.80;;
4885;SDS011;2457;51.788;6.136;2023-04-15T06:43:03;8.27;;;5.20;;
4885;SDS011;2457;51.788;6.136;2023-04-15T06:45:31;9.67;;;5.23;;
4885;SDS011;2457;51.788;6.136;2023-04-15T06:47:58;9.67;;;6.00;;
4885;SDS011;2457;51.788;6.136;2023-04-15T06:50:25;8.10;;;5.37;;
4885;SDS011;2457;51.788;6.136;2023-04-15T06:52:53;9.03;;;5.33;;
4885;SDS011;2457;51.788;6.136;2023-04-15T06:55:20;10.43;;;5.57;;
4885;SDS011;2457;51.788;6.136;2023-04-15T06:57:48;8.53;;;4.77;;
4885;SDS011;2457;51.788;6.136;2023-04-15T07:00:15;9.53;;;5.90;;
4885;SDS011;2457;51.788;6.136;2023-04-15T07:02:43;8.57;;;5.20;;
4885;SDS011;2457;51.788;6.136;2023-04-15T07:05:10;9.87;;;5.70;;
4885;SDS011;2457;51.788;6.136;2023-04-15T07:07:38;7.30;;;4.33;;
4885;SDS011;2457;51.788;6.136;2023-04-15T07:10:05;13.03;;;5.40;;
4885;SDS011;2457;51.788;6.136;2023-04-15T07:12:32;8.93;;;4.70;;
4885;SDS011;2457;51.788;6.136;2023-04-15T07:15:01;8.67;;;5.37;;
4885;SDS011;2457;51.788;6.136;2023-04-15T07:17:28;8.37;;;5.40;;
4885;SDS011;2457;51.788;6.136;2023-04-15T07:19:55;8.97;;;4.90;;
4885;SDS011;2457;51.788;6.136;2023-04-15T07:22:23;8.70;;;5.43;;
4885;SDS011;2457;51.788;6.136;2023-04-15T07:24:51;8.47;;;4.80;;
4885;SDS011;2457;51.788;6.136;2023-04-15T07:27:18;10.17;;;4.83;;
4885;SDS011;2457;51.788;6.136;2023-04-15T07:29:46;9.50;;;5.50;;
4885;SDS011;2457;51.788;6.136;2023-04-15T07:32:13;10.27;;;5.03;;
4885;SDS011;2457;51.788;6.136;2023-04-15T07:34:40;9.33;;;5.37;;
4885;SDS011;2457;51.788;6.136;2023-04-15T07:37:08;9.87;;;5.30;;
4885;SDS011;2457;51.788;6.136;2023-04-15T07:39:35;10.37;;;4.80;;
4885;SDS011;2457;51.788;6.136;2023-04-15T07:42:02;9.67;;;4.20;;
4885;SDS011;2457;51.788;6.136;2023-04-15T07:44:30;8.93;;;4.30;;
4885;SDS011;2457;51.788;6.136;2023-04-15T07:46:57;8.47;;;4.73;;
4885;SDS011;2457;51.788;6.136;2023-04-15T07:49:24;12.00;;;5.10;;
4885;SDS011;2457;51.788;6.136;2023-04-15T07:51:51;8.67;;;4.53;;
4885;SDS011;2457;51.788;6.136;2023-04-15T07:54:19;8.77;;;4.77;;
4885;SDS011;2457;51.788;6.136;2023-04-15T07:56:46;8.13;;;4.33;;
4885;SDS011;2457;51.788;6.136;2023-04-15T07:59:14;7.90;;;4.57;;
4885;SDS011;2457;51.788;6.136;2023-04-15T08:01:43;8.63;;;4.60;;
4885;SDS011;2457;51.788;6.136;2023-04-15T08:04:10;9.23;;;4.13;;
4885;SDS011;2457;51.788;6.136;2023-04-15T08:06:37;5.40;;;3.20;;
4885;SDS011;2457;51.788;6.136;2023-04-15T08:09:05;5.87;;;2.97;;
4885;SDS011;2457;51.788;6.136;2023-04-15T08:11:33;6.80;;;3.50;;
4885;SDS011;2457;51.788;6.136;2023-04-15T08:14:01;6.40;;;3.50;;
4885;SDS011;2457;51.788;6.136;2023-04-15T08:16:28;5.80;;;3.30;;
4885;SDS011;2457;51.788;6.136;2023-04-15T08:18:56;8.30;;;3.60;;
4885;SDS011;2457;51.788;6.136;2023-04-15T08:21:23;7.13;;;3.50;;
4885;SDS011;2457;51.788;6.136;2023-04-15T08:23:51;6.80;;;3.70;;
4885;SDS011;2457;51.788;6.136;2023-04-15T08:26:18;7.43;;;3.60;;
4885;SDS011;2457;51.788;6.136;2023-04-15T08:28:46;6.53;;;3.33;;
4885;SDS011;2457;51.788;6.136;2023-04-15T08:31:14;7.80;;;3.70;;
4885;SDS011;2457;51.788;6.136;2023-04-15T08:33:42;7.77;;;3.93;;
4885;SDS011;2457;51.788;6.136;2023-04-15T08:36:09;7.30;;;3.90;;
4885;SDS011;2457;51.788;6.136;2023-04-15T08:38:37;7.63;;;3.50;;
4885;SDS011;2457;51.788;6.136;2023-04-15T08:41:11;7.70;;;3.03;;
4885;SDS011;2457;51.788;6.136;2023-04-15T08:43:42;6.03;;;3.03;;
4885;SDS011;2457;51.788;6.136;2023-04-15T08:46:08;6.30;;;3.30;;
4885;SDS011;2457;51.788;6.136;2023-04-15T08:48:36;7.50;;;3.80;;
4885;SDS011;2457;51.788;6.136;2023-04-15T08:51:05;7.13;;;3.33;;
4885;SDS011;2457;51.788;6.136;2023-04-15T08:53:33;7.30;;;3.97;;
4885;SDS011;2457;51.788;6.136;2023-04-15T08:56:02;9.40;;;4.47;;
4885;SDS011;2457;51.788;6.136;2023-04-15T08:58:29;9.00;;;4.23;;
4885;SDS011;2457;51.788;6.136;2023-04-15T09:00:57;6.83;;;3.87;;
4885;SDS011;2457;51.788;6.136;2023-04-15T09:03:24;8.20;;;4.13;;
4885;SDS011;2457;51.788;6.136;2023-04-15T09:05:52;7.80;;;3.90;;
4885;SDS011;2457;51.788;6.136;2023-04-15T09:08:19;5.90;;;3.00;;
4885;SDS011;2457;51.788;6.136;2023-04-15T09:10:47;5.27;;;3.17;;
4885;SDS011;2457;51.788;6.136;2023-04-15T09:13:15;7.63;;;3.90;;
4885;SDS011;2457;51.788;6.136;2023-04-15T09:15:42;7.63;;;3.10;;
4885;SDS011;2457;51.788;6.136;2023-04-15T09:18:10;8.40;;;3.93;;
4885;SDS011;2457;51.788;6.136;2023-04-15T09:20:39;7.13;;;3.90;;
4885;SDS011;2457;51.788;6.136;2023-04-15T09:23:13;5.97;;;3.10;;
4885;SDS011;2457;51.788;6.136;2023-04-15T09:25:42;6.80;;;3.23;;
4885;SDS011;2457;51.788;6.136;2023-04-15T09:28:10;6.90;;;2.60;;
4885;SDS011;2457;51.788;6.136;2023-04-15T09:30:37;7.07;;;3.10;;
4885;SDS011;2457;51.788;6.136;2023-04-15T09:33:06;5.00;;;2.50;;
4885;SDS011;2457;51.788;6.136;2023-04-15T09:35:34;5.30;;;2.60;;
4885;SDS011;2457;51.788;6.136;2023-04-15T09:38:03;5.33;;;2.40;;
4885;SDS011;2457;51.788;6.136;2023-04-15T09:40:31;5.50;;;2.70;;
4885;SDS011;2457;51.788;6.136;2023-04-15T09:43:02;6.30;;;2.97;;
4885;SDS011;2457;51.788;6.136;2023-04-15T09:45:30;6.57;;;3.07;;
4885;SDS011;2457;51.788;6.136;2023-04-15T09:47:58;6.70;;;3.20;;
4885;SDS011;2457;51.788;6.136;2023-04-15T09:50:27;7.70;;;2.67;;
4885;SDS011;2457;51.788;6.136;2023-04-15T09:52:57;4.90;;;2.83;;
4885;SDS011;2457;51.788;6.136;2023-04-15T09:55:25;5.97;;;3.10;;
4885;SDS011;2457;51.788;6.136;2023-04-15T09:57:52;5.60;;;2.60;;
4885;SDS011;2457;51.788;6.136;2023-04-15T10:00:20;5.50;;;2.60;;
4885;SDS011;2457;51.788;6.136;2023-04-15T10:02:47;5.70;;;3.10;;
4885;SDS011;2457;51.788;6.136;2023-04-15T10:05:14;5.70;;;2.87;;
4885;SDS011;2457;51.788;6.136;2023-04-15T10:07:43;7.03;;;3.00;;
4885;SDS011;2457;51.788;6.136;2023-04-15T10:10:11;5.13;;;2.60;;
4885;SDS011;2457;51.788;6.136;2023-04-15T10:12:39;5.63;;;2.77;;
4885;SDS011;2457;51.788;6.136;2023-04-15T10:15:08;5.67;;;2.77;;
4885;SDS011;2457;51.788;6.136;2023-04-15T10:17:36;6.47;;;3.17;;
4885;SDS011;2457;51.788;6.136;2023-04-15T10:20:04;5.43;;;2.90;;
4885;SDS011;2457;51.788;6.136;2023-04-15T10:22:32;7.90;;;3.43;;
4885;SDS011;2457;51.788;6.136;2023-04-15T10:24:59;6.30;;;3.10;;
4885;SDS011;2457;51.788;6.136;2023-04-15T10:27:29;5.50;;;2.93;;
4885;SDS011;2457;51.788;6.136;2023-04-15T10:29:57;5.30;;;3.00;;
4885;SDS011;2457;51.788;6.136;2023-04-15T10:32:25;6.10;;;3.17;;
4885;SDS011;2457;51.788;6.136;2023-04-15T10:34:53;5.10;;;2.57;;
4885;SDS011;2457;51.788;6.136;2023-04-15T10:37:21;5.50;;;2.63;;
4885;SDS011;2457;51.788;6.136;2023-04-15T10:39:48;6.13;;;3.10;;
4885;SDS011;2457;51.788;6.136;2023-04-15T10:42:17;6.30;;;3.10;;
4885;SDS011;2457;51.788;6.136;2023-04-15T10:44:48;7.70;;;3.77;;
4885;SDS011;2457;51.788;6.136;2023-04-15T10:47:18;6.07;;;2.50;;
4885;SDS011;2457;51.788;6.136;2023-04-15T10:49:49;6.00;;;3.30;;
4885;SDS011;2457;51.788;6.136;2023-04-15T10:52:21;5.10;;;2.87;;
4885;SDS011;2457;51.788;6.136;2023-04-15T10:54:46;5.47;;;2.77;;
4885;SDS011;2457;51.788;6.136;2023-04-15T10:57:14;5.37;;;2.70;;
4885;SDS011;2457;51.788;6.136;2023-04-15T11:02:41;5.40;;;2.40;;
4885;SDS011;2457;51.788;6.136;2023-04-15T11:05:06;4.37;;;1.97;;
4885;SDS011;2457;51.788;6.136;2023-04-15T11:10:49;5.10;;;2.80;;
4885;SDS011;2457;51.788;6.136;2023-04-15T11:12:33;8.33;;;3.07;;
4885;SDS011;2457;51.788;6.136;2023-04-15T11:17:47;5.33;;;2.57;;
4885;SDS011;2457;51.788;6.136;2023-04-15T11:20:14;8.27;;;2.70;;
4885;SDS011;2457;51.788;6.136;2023-04-15T11:22:46;7.80;;;2.97;;
4885;SDS011;2457;51.788;6.136;2023-04-15T11:25:30;4.73;;;2.60;;
4885;SDS011;2457;51.788;6.136;2023-04-15T11:27:58;6.53;;;2.70;;
4885;SDS011;2457;51.788;6.136;2023-04-15T11:30:26;8.10;;;3.47;;
4885;SDS011;2457;51.788;6.136;2023-04-15T11:32:54;6.37;;;3.57;;
4885;SDS011;2457;51.788;6.136;2023-04-15T11:35:22;8.23;;;3.33;;
4885;SDS011;2457;51.788;6.136;2023-04-15T11:37:49;8.03;;;3.83;;
4885;SDS011;2457;51.788;6.136;2023-04-15T11:40:27;5.47;;;2.60;;
4885;SDS011;2457;51.788;6.136;2023-04-15T11:42:45;6.00;;;2.67;;
4885;SDS011;2457;51.788;6.136;2023-04-15T11:45:13;6.20;;;2.80;;
4885;SDS011;2457;51.788;6.136;2023-04-15T11:47:41;6.70;;;3.30;;
4885;SDS011;2457;51.788;6.136;2023-04-15T11:50:18;5.30;;;2.83;;
4885;SDS011;2457;51.788;6.136;2023-04-15T11:52:56;5.30;;;2.47;;
4885;SDS011;2457;51.788;6.136;2023-04-15T11:55:20;5.30;;;2.47;;
4885;SDS011;2457;51.788;6.136;2023-04-15T11:57:47;5.77;;;3.10;;
4885;SDS011;2457;51.788;6.136;2023-04-15T12:00:15;6.67;;;3.13;;
4885;SDS011;2457;51.788;6.136;2023-04-15T12:02:42;5.27;;;2.47;;
4885;SDS011;2457;51.788;6.136;2023-04-15T12:05:09;4.50;;;2.10;;
4885;SDS011;2457;51.788;6.136;2023-04-15T12:07:56;4.77;;;2.23;;
4885;SDS011;2457;51.788;6.136;2023-04-15T12:10:24;8.00;;;2.57;;
4885;SDS011;2457;51.788;6.136;2023-04-15T12:12:51;5.97;;;2.53;;
4885;SDS011;2457;51.788;6.136;2023-04-15T12:15:21;8.20;;;2.30;;
4885;SDS011;2457;51.788;6.136;2023-04-15T12:17:52;5.57;;;2.10;;
4885;SDS011;2457;51.788;6.136;2023-04-15T12:20:24;3.90;;;2.07;;
4885;SDS011;2457;51.788;6.136;2023-04-15T12:22:49;7.33;;;2.27;;
4885;SDS011;2457;51.788;6.136;2023-04-15T12:25:17;7.93;;;2.27;;
4885;SDS011;2457;51.788;6.136;2023-04-15T12:27:49;5.40;;;2.10;;
4885;SDS011;2457;51.788;6.136;2023-04-15T12:30:13;4.00;;;1.83;;
4885;SDS011;2457;51.788;6.136;2023-04-15T12:32:41;6.80;;;3.23;;
4885;SDS011;2457;51.788;6.136;2023-04-15T12:35:09;5.20;;;2.90;;
4885;SDS011;2457;51.788;6.136;2023-04-15T12:37:36;6.07;;;2.60;;
4885;SDS011;2457;51.788;6.136;2023-04-15T12:40:03;4.27;;;2.00;;
4885;SDS011;2457;51.788;6.136;2023-04-15T12:42:32;3.80;;;1.70;;
4885;SDS011;2457;51.788;6.136;2023-04-15T12:45:00;4.20;;;1.60;;
4885;SDS011;2457;51.788;6.136;2023-04-15T12:47:28;4.93;;;1.53;;
4885;SDS011;2457;51.788;6.136;2023-04-15T12:49:55;4.50;;;2.00;;
4885;SDS011;2457;51.788;6.136;2023-04-15T12:52:22;3.80;;;1.50;;
4885;SDS011;2457;51.788;6.136;2023-04-15T12:54:50;3.43;;;1.30;;
4885;SDS011;2457;51.788;6.136;2023-04-15T12:57:17;3.43;;;1.50;;
4885;SDS011;2457;51.788;6.136;2023-04-15T12:59:45;4.60;;;1.60;;
4885;SDS011;2457;51.788;6.136;2023-04-15T13:02:12;5.73;;;1.60;;
4885;SDS011;2457;51.788;6.136;2023-04-15T13:04:39;3.50;;;1.60;;
4885;SDS011;2457;51.788;6.136;2023-04-15T13:07:06;4.00;;;1.57;;
4885;SDS011;2457;51.788;6.136;2023-04-15T13:09:34;3.90;;;1.40;;
4885;SDS011;2457;51.788;6.136;2023-04-15T13:12:01;3.57;;;1.37;;
4885;SDS011;2457;51.788;6.136;2023-04-15T13:14:30;6.73;;;1.70;;
4885;SDS011;2457;51.788;6.136;2023-04-15T13:16:58;3.07;;;1.20;;
4885;SDS011;2457;51.788;6.136;2023-04-15T13:19:25;3.53;;;1.37;;
4885;SDS011;2457;51.788;6.136;2023-04-15T13:21:52;10.40;;;1.50;;
4885;SDS011;2457;51.788;6.136;2023-04-15T13:24:20;5.77;;;1.87;;
4885;SDS011;2457;51.788;6.136;2023-04-15T13:26:47;3.67;;;1.43;;
4885;SDS011;2457;51.788;6.136;2023-04-15T13:29:14;4.60;;;1.33;;
4885;SDS011;2457;51.788;6.136;2023-04-15T13:31:42;5.13;;;1.40;;
4885;SDS011;2457;51.788;6.136;2023-04-15T13:34:09;3.07;;;1.10;;
4885;SDS011;2457;51.788;6.136;2023-04-15T13:36:36;3.30;;;1.20;;
4885;SDS011;2457;51.788;6.136;2023-04-15T13:39:03;3.30;;;1.30;;
4885;SDS011;2457;51.788;6.136;2023-04-15T13:41:31;3.90;;;1.33;;
4885;SDS011;2457;51.788;6.136;2023-04-15T13:43:58;3.10;;;1.20;;
4885;SDS011;2457;51.788;6.136;2023-04-15T13:46:25;4.70;;;1.37;;
4885;SDS011;2457;51.788;6.136;2023-04-15T13:48:53;5.33;;;1.20;;
4885;SDS011;2457;51.788;6.136;2023-04-15T13:51:20;4.07;;;1.37;;
4885;SDS011;2457;51.788;6.136;2023-04-15T13:53:47;3.30;;;1.10;;
4885;SDS011;2457;51.788;6.136;2023-04-15T13:56:15;3.80;;;1.13;;
4885;SDS011;2457;51.788;6.136;2023-04-15T13:58:42;3.10;;;1.10;;
4885;SDS011;2457;51.788;6.136;2023-04-15T14:01:09;5.93;;;1.73;;
4885;SDS011;2457;51.788;6.136;2023-04-15T14:03:36;4.57;;;1.67;;
4885;SDS011;2457;51.788;6.136;2023-04-15T14:06:04;3.10;;;1.10;;
4885;SDS011;2457;51.788;6.136;2023-04-15T14:08:31;3.73;;;1.27;;
4885;SDS011;2457;51.788;6.136;2023-04-15T14:10:59;4.20;;;1.40;;
4885;SDS011;2457;51.788;6.136;2023-04-15T14:13:26;3.60;;;1.20;;
4885;SDS011;2457;51.788;6.136;2023-04-15T14:15:53;4.33;;;1.40;;
4885;SDS011;2457;51.788;6.136;2023-04-15T14:18:21;3.70;;;0.93;;
4885;SDS011;2457;51.788;6.136;2023-04-15T14:20:48;3.80;;;1.23;;
4885;SDS011;2457;51.788;6.136;2023-04-15T14:23:15;2.90;;;1.10;;
4885;SDS011;2457;51.788;6.136;2023-04-15T14:25:43;3.70;;;1.43;;
4885;SDS011;2457;51.788;6.136;2023-04-15T14:28:10;3.50;;;1.20;;
4885;SDS011;2457;51.788;6.136;2023-04-15T14:30:37;4.77;;;1.30;;
4885;SDS011;2457;51.788;6.136;2023-04-15T14:33:04;4.50;;;1.20;;
4885;SDS011;2457;51.788;6.136;2023-04-15T14:35:32;3.93;;;1.20;;
4885;SDS011;2457;51.788;6.136;2023-04-15T14:37:59;4.80;;;1.00;;
4885;SDS011;2457;51.788;6.136;2023-04-15T14:40:26;3.27;;;1.20;;
4885;SDS011;2457;51.788;6.136;2023-04-15T14:42:53;4.97;;;1.20;;
4885;SDS011;2457;51.788;6.136;2023-04-15T14:45:21;6.30;;;1.37;;
4885;SDS011;2457;51.788;6.136;2023-04-15T14:47:49;3.60;;;1.27;;
4885;SDS011;2457;51.788;6.136;2023-04-15T14:50:16;4.20;;;1.40;;
4885;SDS011;2457;51.788;6.136;2023-04-15T14:52:43;3.53;;;1.27;;
4885;SDS011;2457;51.788;6.136;2023-04-15T14:55:11;3.60;;;1.33;;
4885;SDS011;2457;51.788;6.136;2023-04-15T14:57:39;3.87;;;1.30;;
4885;SDS011;2457;51.788;6.136;2023-04-15T15:00:07;4.00;;;1.47;;
4885;SDS011;2457;51.788;6.136;2023-04-15T15:02:35;4.77;;;1.47;;
4885;SDS011;2457;51.788;6.136;2023-04-15T15:05:02;3.30;;;1.40;;
4885;SDS011;2457;51.788;6.136;2023-04-15T15:07:29;3.83;;;1.37;;
4885;SDS011;2457;51.788;6.136;2023-04-15T15:09:56;3.50;;;1.37;;
4885;SDS011;2457;51.788;6.136;2023-04-15T15:12:24;4.40;;;1.40;;
4885;SDS011;2457;51.788;6.136;2023-04-15T15:14:51;7.93;;;1.53;;
4885;SDS011;2457;51.788;6.136;2023-04-15T15:17:18;3.40;;;1.40;;
4885;SDS011;2457;51.788;6.136;2023-04-15T15:19:45;3.50;;;1.30;;
4885;SDS011;2457;51.788;6.136;2023-04-15T15:22:13;3.90;;;1.40;;
4885;SDS011;2457;51.788;6.136;2023-04-15T15:24:40;8.67;;;1.33;;
4885;SDS011;2457;51.788;6.136;2023-04-15T15:27:07;4.07;;;1.23;;